sensor_id;sensor_type;location;lat;lon;timestamp;temperature;humidity
51327;DHT22;37412;52.836;6.362;2023-11-19T00:02:05;11.40;99.90
51327;DHT22;37412;52.836;6.362;2023-11-19T00:04:51;11.40;99.90
51327;DHT22;37412;52.836;6.362;2023-11-19T00:07:37;11.50;99.90
51327;DHT22;37412;52.836;6.362;2023-11-19T00:10:30;11.50;99.90
51327;DHT22;37412;52.836;6.362;2023-11-19T00:13:15;11.50;99.90
51327;DHT22;37412;52.836;6.362;2023-11-19T00:16:02;11.50;99.90
51327;DHT22;37412;52.836;6.362;2023-11-19T00:18:50;11.50;99.90
51327;DHT22;37412;52.836;6.362;2023-11-19T00:21:35;11.50;99.90
51327;DHT22;37412;52.836;6.362;2023-11-19T00:24:22;11.50;99.90
51327;DHT22;37412;52.836;6.362;2023-11-19T00:27:08;11.50;99.90
51327;DHT22;37412;52.836;6.362;2023-11-19T00:29:54;11.60;99.90
51327;DHT22;37412;52.836;6.362;2023-11-19T00:32:40;11.60;99.90
51327;DHT22;37412;52.836;6.362;2023-11-19T00:35:26;11.60;99.90
51327;DHT22;37412;52.836;6.362;2023-11-19T00:38:12;11.60;99.90
51327;DHT22;37412;52.836;6.362;2023-11-19T00:40:58;11.70;99.90
51327;DHT22;37412;52.836;6.362;2023-11-19T00:43:44;11.70;99.90
51327;DHT22;37412;52.836;6.362;2023-11-19T00:46:30;11.80;99.90
51327;DHT22;37412;52.836;6.362;2023-11-19T00:49:18;11.80;99.90
51327;DHT22;37412;52.836;6.362;2023-11-19T00:52:04;11.70;99.90
51327;DHT22;37412;52.836;6.362;2023-11-19T00:54:50;11.70;99.90
51327;DHT22;37412;52.836;6.362;2023-11-19T00:57:36;11.80;99.90
51327;DHT22;37412;52.836;6.362;2023-11-19T01:00:22;11.70;99.90
51327;DHT22;37412;52.836;6.362;2023-11-19T01:03:10;11.70;99.90
51327;DHT22;37412;52.836;6.362;2023-11-19T01:05:57;11.80;99.90
51327;DHT22;37412;52.836;6.362;2023-11-19T01:08:45;11.80;99.90
51327;DHT22;37412;52.836;6.362;2023-11-19T01:11:31;11.80;99.90
51327;DHT22;37412;52.836;6.362;2023-11-19T01:14:17;11.80;99.90
51327;DHT22;37412;52.836;6.362;2023-11-19T01:17:03;11.90;99.90
51327;DHT22;37412;52.836;6.362;2023-11-19T01:19:50;11.80;99.90
51327;DHT22;37412;52.836;6.362;2023-11-19T01:22:36;11.90;99.90
51327;DHT22;37412;52.836;6.362;2023-11-19T01:25:22;11.90;99.90
51327;DHT22;37412;52.836;6.362;2023-11-19T01:28:08;12.00;99.90
51327;DHT22;37412;52.836;6.362;2023-11-19T01:30:54;12.00;99.90
51327;DHT22;37412;52.836;6.362;2023-11-19T01:33:40;12.10;99.90
51327;DHT22;37412;52.836;6.362;2023-11-19T01:36:27;12.00;99.90
51327;DHT22;37412;52.836;6.362;2023-11-19T01:39:14;12.00;99.90
51327;DHT22;37412;52.836;6.362;2023-11-19T01:42:01;12.10;99.90
51327;DHT22;37412;52.836;6.362;2023-11-19T01:45:00;12.00;99.90
51327;DHT22;37412;52.836;6.362;2023-11-19T01:47:47;12.10;99.90
51327;DHT22;37412;52.836;6.362;2023-11-19T01:50:33;12.10;99.90
51327;DHT22;37412;52.836;6.362;2023-11-19T01:53:19;12.20;99.90
51327;DHT22;37412;52.836;6.362;2023-11-19T01:56:09;12.10;99.90
51327;DHT22;37412;52.836;6.362;2023-11-19T01:58:57;12.10;99.90
51327;DHT22;37412;52.836;6.362;2023-11-19T02:01:43;12.10;99.90
51327;DHT22;37412;52.836;6.362;2023-11-19T02:04:29;12.10;99.90
51327;DHT22;37412;52.836;6.362;2023-11-19T02:07:15;12.10;99.90
51327;DHT22;37412;52.836;6.362;2023-11-19T02:10:03;12.10;99.90
51327;DHT22;37412;52.836;6.362;2023-11-19T02:12:51;12.10;99.90
51327;DHT22;37412;52.836;6.362;2023-11-19T02:15:37;12.10;99.90
51327;DHT22;37412;52.836;6.362;2023-11-19T02:18:27;12.10;99.90
51327;DHT22;37412;52.836;6.362;2023-11-19T02:21:16;12.20;99.90
51327;DHT22;37412;52.836;6.362;2023-11-19T02:24:06;12.10;99.90
51327;DHT22;37412;52.836;6.362;2023-11-19T02:27:04;12.10;99.90
51327;DHT22;37412;52.836;6.362;2023-11-19T02:29:53;12.10;99.90
51327;DHT22;37412;52.836;6.362;2023-11-19T02:32:41;12.10;99.90
51327;DHT22;37412;52.836;6.362;2023-11-19T02:35:27;12.10;99.90
51327;DHT22;37412;52.836;6.362;2023-11-19T02:38:13;12.20;99.90
51327;DHT22;37412;52.836;6.362;2023-11-19T02:41:01;12.10;99.90
51327;DHT22;37412;52.836;6.362;2023-11-19T02:43:48;12.10;99.90
51327;DHT22;37412;52.836;6.362;2023-11-19T02:46:34;12.10;99.90
51327;DHT22;37412;52.836;6.362;2023-11-19T02:49:20;12.10;99.90
51327;DHT22;37412;52.836;6.362;2023-11-19T02:52:06;12.00;99.90
51327;DHT22;37412;52.836;6.362;2023-11-19T02:54:53;12.00;99.90
51327;DHT22;37412;52.836;6.362;2023-11-19T02:57:39;11.90;99.90
51327;DHT22;37412;52.836;6.362;2023-11-19T03:00:32;11.90;99.90
51327;DHT22;37412;52.836;6.362;2023-11-19T03:03:22;11.90;99.90
51327;DHT22;37412;52.836;6.362;2023-11-19T03:06:08;11.90;99.90
51327;DHT22;37412;52.836;6.362;2023-11-19T03:08:58;11.90;99.90
51327;DHT22;37412;52.836;6.362;2023-11-19T03:11:44;11.90;99.90
51327;DHT22;37412;52.836;6.362;2023-11-19T03:14:30;11.90;99.90
51327;DHT22;37412;52.836;6.362;2023-11-19T03:17:18;11.80;99.90
51327;DHT22;37412;52.836;6.362;2023-11-19T03:20:09;11.90;99.90
51327;DHT22;37412;52.836;6.362;2023-11-19T03:22:55;11.90;99.90
51327;DHT22;37412;52.836;6.362;2023-11-19T03:25:44;11.90;99.90
51327;DHT22;37412;52.836;6.362;2023-11-19T03:28:30;11.90;99.90
51327;DHT22;37412;52.836;6.362;2023-11-19T03:31:16;11.90;99.90
51327;DHT22;37412;52.836;6.362;2023-11-19T03:34:05;12.00;99.90
51327;DHT22;37412;52.836;6.362;2023-11-19T03:36:51;11.90;99.90
51327;DHT22;37412;52.836;6.362;2023-11-19T03:39:37;12.20;99.90
51327;DHT22;37412;52.836;6.362;2023-11-19T03:42:23;12.00;99.90
51327;DHT22;37412;52.836;6.362;2023-11-19T03:45:09;11.90;99.90
51327;DHT22;37412;52.836;6.362;2023-11-19T03:47:55;11.90;99.90
51327;DHT22;37412;52.836;6.362;2023-11-19T03:50:44;11.90;99.90
51327;DHT22;37412;52.836;6.362;2023-11-19T03:53:30;11.90;99.90
51327;DHT22;37412;52.836;6.362;2023-11-19T03:56:16;11.90;99.90
51327;DHT22;37412;52.836;6.362;2023-11-19T03:59:02;11.90;99.90
51327;DHT22;37412;52.836;6.362;2023-11-19T04:01:48;12.00;99.90
51327;DHT22;37412;52.836;6.362;2023-11-19T04:04:34;11.80;99.90
51327;DHT22;37412;52.836;6.362;2023-11-19T04:07:20;11.80;99.90
51327;DHT22;37412;52.836;6.362;2023-11-19T04:10:06;11.80;99.90
51327;DHT22;37412;52.836;6.362;2023-11-19T04:12:52;11.70;99.90
51327;DHT22;37412;52.836;6.362;2023-11-19T04:15:38;11.80;99.90
51327;DHT22;37412;52.836;6.362;2023-11-19T04:18:24;11.70;99.90
51327;DHT22;37412;52.836;6.362;2023-11-19T04:21:10;11.70;99.90
51327;DHT22;37412;52.836;6.362;2023-11-19T04:23:56;11.70;99.90
51327;DHT22;37412;52.836;6.362;2023-11-19T04:26:46;11.70;99.90
51327;DHT22;37412;52.836;6.362;2023-11-19T04:29:32;11.60;99.90
51327;DHT22;37412;52.836;6.362;2023-11-19T04:32:18;11.60;99.90
51327;DHT22;37412;52.836;6.362;2023-11-19T04:35:06;11.60;99.90
51327;DHT22;37412;52.836;6.362;2023-11-19T04:37:53;11.60;99.90
51327;DHT22;37412;52.836;6.362;2023-11-19T04:40:43;11.50;99.90
51327;DHT22;37412;52.836;6.362;2023-11-19T04:43:29;11.50;99.90
51327;DHT22;37412;52.836;6.362;2023-11-19T04:46:15;11.50;99.90
51327;DHT22;37412;52.836;6.362;2023-11-19T04:49:01;11.60;99.90
51327;DHT22;37412;52.836;6.362;2023-11-19T04:51:49;11.50;99.90
51327;DHT22;37412;52.836;6.362;2023-11-19T04:54:35;11.40;99.90
51327;DHT22;37412;52.836;6.362;2023-11-19T04:57:21;11.30;99.90
51327;DHT22;37412;52.836;6.362;2023-11-19T05:00:07;11.40;99.90
51327;DHT22;37412;52.836;6.362;2023-11-19T05:02:53;11.40;99.90
51327;DHT22;37412;52.836;6.362;2023-11-19T05:05:39;11.40;99.90
51327;DHT22;37412;52.836;6.362;2023-11-19T05:08:25;11.40;99.90
51327;DHT22;37412;52.836;6.362;2023-11-19T05:11:11;11.50;99.90
51327;DHT22;37412;52.836;6.362;2023-11-19T05:14:03;11.50;99.90
51327;DHT22;37412;52.836;6.362;2023-11-19T05:16:49;11.50;99.90
51327;DHT22;37412;52.836;6.362;2023-11-19T05:19:35;11.50;99.90
51327;DHT22;37412;52.836;6.362;2023-11-19T05:22:21;11.50;99.90
51327;DHT22;37412;52.836;6.362;2023-11-19T05:25:08;11.50;99.90
51327;DHT22;37412;52.836;6.362;2023-11-19T05:27:54;11.50;99.90
51327;DHT22;37412;52.836;6.362;2023-11-19T05:30:40;11.50;99.90
51327;DHT22;37412;52.836;6.362;2023-11-19T05:33:26;11.50;99.90
51327;DHT22;37412;52.836;6.362;2023-11-19T05:36:12;11.50;99.90
51327;DHT22;37412;52.836;6.362;2023-11-19T05:38:58;11.50;99.90
51327;DHT22;37412;52.836;6.362;2023-11-19T05:41:44;11.50;99.90
51327;DHT22;37412;52.836;6.362;2023-11-19T05:44:30;11.70;99.90
51327;DHT22;37412;52.836;6.362;2023-11-19T05:47:16;11.50;99.90
51327;DHT22;37412;52.836;6.362;2023-11-19T05:50:02;11.60;99.90
51327;DHT22;37412;52.836;6.362;2023-11-19T05:52:50;11.50;99.90
51327;DHT22;37412;52.836;6.362;2023-11-19T05:55:36;11.50;99.90
51327;DHT22;37412;52.836;6.362;2023-11-19T05:58:30;11.40;99.90
51327;DHT22;37412;52.836;6.362;2023-11-19T06:01:18;11.40;99.90
51327;DHT22;37412;52.836;6.362;2023-11-19T06:04:04;11.40;99.90
51327;DHT22;37412;52.836;6.362;2023-11-19T06:06:50;11.40;99.90
51327;DHT22;37412;52.836;6.362;2023-11-19T06:09:36;11.40;99.90
51327;DHT22;37412;52.836;6.362;2023-11-19T06:12:22;11.30;99.90
51327;DHT22;37412;52.836;6.362;2023-11-19T06:15:08;11.30;99.90
51327;DHT22;37412;52.836;6.362;2023-11-19T06:17:54;11.20;99.90
51327;DHT22;37412;52.836;6.362;2023-11-19T06:20:41;11.20;99.90
51327;DHT22;37412;52.836;6.362;2023-11-19T06:23:27;11.20;99.90
51327;DHT22;37412;52.836;6.362;2023-11-19T06:26:13;11.20;99.90
51327;DHT22;37412;52.836;6.362;2023-11-19T06:29:00;11.10;99.90
51327;DHT22;37412;52.836;6.362;2023-11-19T06:31:46;11.10;99.90
51327;DHT22;37412;52.836;6.362;2023-11-19T06:34:34;11.20;99.90
51327;DHT22;37412;52.836;6.362;2023-11-19T06:37:20;11.20;99.90
51327;DHT22;37412;52.836;6.362;2023-11-19T06:40:07;11.20;99.90
51327;DHT22;37412;52.836;6.362;2023-11-19T06:42:54;11.20;99.90
51327;DHT22;37412;52.836;6.362;2023-11-19T06:45:40;11.20;99.90
51327;DHT22;37412;52.836;6.362;2023-11-19T06:48:26;11.20;99.90
51327;DHT22;37412;52.836;6.362;2023-11-19T06:51:12;11.20;99.90
51327;DHT22;37412;52.836;6.362;2023-11-19T06:53:58;11.20;99.90
51327;DHT22;37412;52.836;6.362;2023-11-19T06:56:45;11.10;99.90
51327;DHT22;37412;52.836;6.362;2023-11-19T06:59:31;11.70;99.90
51327;DHT22;37412;52.836;6.362;2023-11-19T07:02:17;11.10;99.90
51327;DHT22;37412;52.836;6.362;2023-11-19T07:05:03;11.10;99.90
51327;DHT22;37412;52.836;6.362;2023-11-19T07:07:50;11.10;99.90
51327;DHT22;37412;52.836;6.362;2023-11-19T07:10:36;11.10;99.90
51327;DHT22;37412;52.836;6.362;2023-11-19T07:13:22;11.10;99.90
51327;DHT22;37412;52.836;6.362;2023-11-19T07:16:08;11.00;99.90
51327;DHT22;37412;52.836;6.362;2023-11-19T07:18:56;11.10;99.90
51327;DHT22;37412;52.836;6.362;2023-11-19T07:21:44;11.10;99.90
51327;DHT22;37412;52.836;6.362;2023-11-19T07:24:30;11.00;99.90
51327;DHT22;37412;52.836;6.362;2023-11-19T07:27:17;11.10;99.90
51327;DHT22;37412;52.836;6.362;2023-11-19T07:30:04;11.10;99.90
51327;DHT22;37412;52.836;6.362;2023-11-19T07:32:50;11.10;99.90
51327;DHT22;37412;52.836;6.362;2023-11-19T07:35:36;11.10;99.90
51327;DHT22;37412;52.836;6.362;2023-11-19T07:38:22;11.10;99.90
51327;DHT22;37412;52.836;6.362;2023-11-19T07:41:09;11.10;99.90
51327;DHT22;37412;52.836;6.362;2023-11-19T07:43:58;11.20;99.90
51327;DHT22;37412;52.836;6.362;2023-11-19T07:46:44;11.20;99.90
51327;DHT22;37412;52.836;6.362;2023-11-19T07:49:30;11.20;99.90
51327;DHT22;37412;52.836;6.362;2023-11-19T07:52:16;11.20;99.90
51327;DHT22;37412;52.836;6.362;2023-11-19T07:55:03;11.20;99.90
51327;DHT22;37412;52.836;6.362;2023-11-19T07:57:49;11.20;99.90
51327;DHT22;37412;52.836;6.362;2023-11-19T08:00:35;11.20;99.90
51327;DHT22;37412;52.836;6.362;2023-11-19T08:03:20;11.20;99.90
51327;DHT22;37412;52.836;6.362;2023-11-19T08:06:07;11.20;99.90
51327;DHT22;37412;52.836;6.362;2023-11-19T08:08:53;11.20;99.90
51327;DHT22;37412;52.836;6.362;2023-11-19T08:11:41;11.90;99.90
51327;DHT22;37412;52.836;6.362;2023-11-19T08:14:27;11.20;99.90
51327;DHT22;37412;52.836;6.362;2023-11-19T08:17:13;11.30;99.90
51327;DHT22;37412;52.836;6.362;2023-11-19T08:19:59;11.30;99.90
51327;DHT22;37412;52.836;6.362;2023-11-19T08:22:46;11.30;99.90
51327;DHT22;37412;52.836;6.362;2023-11-19T08:25:31;11.30;99.90
51327;DHT22;37412;52.836;6.362;2023-11-19T08:28:19;11.60;99.90
51327;DHT22;37412;52.836;6.362;2023-11-19T08:31:05;11.30;99.90
51327;DHT22;37412;52.836;6.362;2023-11-19T08:33:51;11.30;99.90
51327;DHT22;37412;52.836;6.362;2023-11-19T08:36:37;11.40;99.90
51327;DHT22;37412;52.836;6.362;2023-11-19T08:39:23;11.40;99.90
51327;DHT22;37412;52.836;6.362;2023-11-19T08:42:09;11.40;99.90
51327;DHT22;37412;52.836;6.362;2023-11-19T08:44:55;11.40;99.90
51327;DHT22;37412;52.836;6.362;2023-11-19T08:47:44;11.40;99.90
51327;DHT22;37412;52.836;6.362;2023-11-19T08:50:30;11.40;99.90
51327;DHT22;37412;52.836;6.362;2023-11-19T08:53:16;11.30;99.90
51327;DHT22;37412;52.836;6.362;2023-11-19T08:56:03;11.40;99.90
51327;DHT22;37412;52.836;6.362;2023-11-19T08:58:49;11.40;99.90
51327;DHT22;37412;52.836;6.362;2023-11-19T09:01:35;11.40;99.90
51327;DHT22;37412;52.836;6.362;2023-11-19T09:04:21;11.50;99.90
51327;DHT22;37412;52.836;6.362;2023-11-19T09:07:08;11.50;99.90
51327;DHT22;37412;52.836;6.362;2023-11-19T09:09:55;11.50;99.90
51327;DHT22;37412;52.836;6.362;2023-11-19T09:12:41;11.50;99.90
51327;DHT22;37412;52.836;6.362;2023-11-19T09:15:27;11.60;99.90
51327;DHT22;37412;52.836;6.362;2023-11-19T09:18:13;11.60;99.90
51327;DHT22;37412;52.836;6.362;2023-11-19T09:20:59;11.70;99.90
51327;DHT22;37412;52.836;6.362;2023-11-19T09:23:45;11.70;99.90
51327;DHT22;37412;52.836;6.362;2023-11-19T09:26:32;11.70;99.90
51327;DHT22;37412;52.836;6.362;2023-11-19T09:29:18;11.80;99.90
51327;DHT22;37412;52.836;6.362;2023-11-19T09:32:05;11.80;99.90
51327;DHT22;37412;52.836;6.362;2023-11-19T09:34:51;11.90;99.90
51327;DHT22;37412;52.836;6.362;2023-11-19T09:37:37;11.90;99.90
51327;DHT22;37412;52.836;6.362;2023-11-19T09:40:23;11.90;99.90
51327;DHT22;37412;52.836;6.362;2023-11-19T09:43:09;11.90;99.90
51327;DHT22;37412;52.836;6.362;2023-11-19T09:45:57;12.00;99.90
51327;DHT22;37412;52.836;6.362;2023-11-19T09:48:44;11.90;99.90
51327;DHT22;37412;52.836;6.362;2023-11-19T09:51:31;12.00;99.90
51327;DHT22;37412;52.836;6.362;2023-11-19T09:54:16;12.00;99.90
51327;DHT22;37412;52.836;6.362;2023-11-19T09:57:04;12.00;99.90
51327;DHT22;37412;52.836;6.362;2023-11-19T09:59:52;12.00;99.90
51327;DHT22;37412;52.836;6.362;2023-11-19T10:02:39;12.00;99.90
51327;DHT22;37412;52.836;6.362;2023-11-19T10:05:26;11.90;99.90
51327;DHT22;37412;52.836;6.362;2023-11-19T10:08:12;12.40;99.90
51327;DHT22;37412;52.836;6.362;2023-11-19T10:10:58;12.30;99.90
51327;DHT22;37412;52.836;6.362;2023-11-19T10:13:45;11.90;99.90
51327;DHT22;37412;52.836;6.362;2023-11-19T10:16:34;11.80;99.90
51327;DHT22;37412;52.836;6.362;2023-11-19T10:19:21;11.70;99.90
51327;DHT22;37412;52.836;6.362;2023-11-19T10:22:07;11.60;99.90
51327;DHT22;37412;52.836;6.362;2023-11-19T10:24:53;11.70;99.90
51327;DHT22;37412;52.836;6.362;2023-11-19T10:27:39;11.60;99.90
51327;DHT22;37412;52.836;6.362;2023-11-19T10:30:27;11.60;99.90
51327;DHT22;37412;52.836;6.362;2023-11-19T10:33:14;11.60;99.90
51327;DHT22;37412;52.836;6.362;2023-11-19T10:36:05;11.60;99.90
51327;DHT22;37412;52.836;6.362;2023-11-19T10:38:54;11.70;99.90
51327;DHT22;37412;52.836;6.362;2023-11-19T10:41:40;11.70;99.90
51327;DHT22;37412;52.836;6.362;2023-11-19T10:44:33;11.80;99.90
51327;DHT22;37412;52.836;6.362;2023-11-19T10:47:23;11.90;99.90
51327;DHT22;37412;52.836;6.362;2023-11-19T10:50:09;11.90;99.90
51327;DHT22;37412;52.836;6.362;2023-11-19T10:52:56;11.90;99.90
51327;DHT22;37412;52.836;6.362;2023-11-19T10:55:47;12.00;99.90
51327;DHT22;37412;52.836;6.362;2023-11-19T10:58:34;12.00;99.90
51327;DHT22;37412;52.836;6.362;2023-11-19T11:01:23;12.00;99.90
51327;DHT22;37412;52.836;6.362;2023-11-19T11:04:22;12.00;99.90
51327;DHT22;37412;52.836;6.362;2023-11-19T11:07:09;12.00;99.90
51327;DHT22;37412;52.836;6.362;2023-11-19T11:09:55;11.90;99.90
51327;DHT22;37412;52.836;6.362;2023-11-19T11:12:43;11.90;99.90
51327;DHT22;37412;52.836;6.362;2023-11-19T11:15:30;11.90;99.90
51327;DHT22;37412;52.836;6.362;2023-11-19T11:18:17;11.80;99.90
51327;DHT22;37412;52.836;6.362;2023-11-19T11:21:08;11.90;99.90
51327;DHT22;37412;52.836;6.362;2023-11-19T11:27:40;11.90;99.90
51327;DHT22;37412;52.836;6.362;2023-11-19T11:30:39;11.80;99.90
51327;DHT22;37412;52.836;6.362;2023-11-19T11:36:31;11.80;99.90
51327;DHT22;37412;52.836;6.362;2023-11-19T11:39:24;11.80;99.90
51327;DHT22;37412;52.836;6.362;2023-11-19T11:45:05;11.90;99.90
51327;DHT22;37412;52.836;6.362;2023-11-19T11:50:53;11.80;99.90
51327;DHT22;37412;52.836;6.362;2023-11-19T11:53:41;11.80;99.90
51327;DHT22;37412;52.836;6.362;2023-11-19T11:56:33;11.80;99.90
51327;DHT22;37412;52.836;6.362;2023-11-19T11:59:19;11.80;99.90
51327;DHT22;37412;52.836;6.362;2023-11-19T12:02:08;11.80;99.90
51327;DHT22;37412;52.836;6.362;2023-11-19T12:04:54;11.80;99.90
51327;DHT22;37412;52.836;6.362;2023-11-19T12:07:41;11.70;99.90
51327;DHT22;37412;52.836;6.362;2023-11-19T12:10:29;11.70;99.90
51327;DHT22;37412;52.836;6.362;2023-11-19T12:13:17;11.60;99.90
51327;DHT22;37412;52.836;6.362;2023-11-19T12:18:54;11.50;99.90
51327;DHT22;37412;52.836;6.362;2023-11-19T12:21:43;11.40;99.90
51327;DHT22;37412;52.836;6.362;2023-11-19T12:24:29;11.30;99.90
51327;DHT22;37412;52.836;6.362;2023-11-19T12:27:15;11.30;99.90
51327;DHT22;37412;52.836;6.362;2023-11-19T12:30:05;11.20;99.90
51327;DHT22;37412;52.836;6.362;2023-11-19T12:32:52;11.20;99.90
51327;DHT22;37412;52.836;6.362;2023-11-19T12:35:44;11.20;99.90
51327;DHT22;37412;52.836;6.362;2023-11-19T12:38:33;11.20;99.90
51327;DHT22;37412;52.836;6.362;2023-11-19T12:41:21;11.20;99.90
51327;DHT22;37412;52.836;6.362;2023-11-19T12:44:12;11.20;99.90
51327;DHT22;37412;52.836;6.362;2023-11-19T12:47:04;11.20;99.90
51327;DHT22;37412;52.836;6.362;2023-11-19T12:49:56;11.30;99.90
51327;DHT22;37412;52.836;6.362;2023-11-19T12:52:42;11.30;99.90
51327;DHT22;37412;52.836;6.362;2023-11-19T12:55:29;11.30;99.90
51327;DHT22;37412;52.836;6.362;2023-11-19T12:58:31;11.50;99.90
51327;DHT22;37412;52.836;6.362;2023-11-19T13:01:19;11.30;99.90
51327;DHT22;37412;52.836;6.362;2023-11-19T13:04:18;11.30;99.90
51327;DHT22;37412;52.836;6.362;2023-11-19T13:07:04;11.40;99.90
51327;DHT22;37412;52.836;6.362;2023-11-19T13:09:50;11.40;99.90
51327;DHT22;37412;52.836;6.362;2023-11-19T13:12:39;11.40;99.90
51327;DHT22;37412;52.836;6.362;2023-11-19T13:15:25;11.40;99.90
51327;DHT22;37412;52.836;6.362;2023-11-19T13:18:12;11.50;99.90
51327;DHT22;37412;52.836;6.362;2023-11-19T13:21:09;11.50;99.90
51327;DHT22;37412;52.836;6.362;2023-11-19T13:23:55;11.60;99.90
51327;DHT22;37412;52.836;6.362;2023-11-19T13:26:41;11.60;99.90
51327;DHT22;37412;52.836;6.362;2023-11-19T13:29:27;11.50;99.90
51327;DHT22;37412;52.836;6.362;2023-11-19T13:32:13;11.60;99.90
51327;DHT22;37412;52.836;6.362;2023-11-19T13:34:59;11.60;99.90
51327;DHT22;37412;52.836;6.362;2023-11-19T13:37:46;11.60;99.90
51327;DHT22;37412;52.836;6.362;2023-11-19T13:40:32;11.60;99.90
51327;DHT22;37412;52.836;6.362;2023-11-19T13:43:18;11.60;99.90
51327;DHT22;37412;52.836;6.362;2023-11-19T13:46:05;11.60;99.90
51327;DHT22;37412;52.836;6.362;2023-11-19T13:48:54;11.60;99.90
51327;DHT22;37412;52.836;6.362;2023-11-19T13:51:40;11.60;99.90
51327;DHT22;37412;52.836;6.362;2023-11-19T13:54:26;11.50;99.90
51327;DHT22;37412;52.836;6.362;2023-11-19T13:57:12;11.50;99.90
51327;DHT22;37412;52.836;6.362;2023-11-19T14:00:09;11.40;99.90
51327;DHT22;37412;52.836;6.362;2023-11-19T14:03:04;11.40;99.90
51327;DHT22;37412;52.836;6.362;2023-11-19T14:05:50;11.30;99.90
51327;DHT22;37412;52.836;6.362;2023-11-19T14:08:38;11.20;99.90
51327;DHT22;37412;52.836;6.362;2023-11-19T14:11:24;11.20;99.90
51327;DHT22;37412;52.836;6.362;2023-11-19T14:14:10;10.80;99.90
51327;DHT22;37412;52.836;6.362;2023-11-19T14:16:56;11.10;99.90
51327;DHT22;37412;52.836;6.362;2023-11-19T14:19:42;11.10;99.90
51327;DHT22;37412;52.836;6.362;2023-11-19T14:22:28;11.00;99.90
51327;DHT22;37412;52.836;6.362;2023-11-19T14:25:16;11.00;99.90
51327;DHT22;37412;52.836;6.362;2023-11-19T14:28:02;11.00;99.90
51327;DHT22;37412;52.836;6.362;2023-11-19T14:30:49;11.00;99.90
51327;DHT22;37412;52.836;6.362;2023-11-19T14:33:39;11.00;99.90
51327;DHT22;37412;52.836;6.362;2023-11-19T14:36:26;11.00;99.90
51327;DHT22;37412;52.836;6.362;2023-11-19T14:39:12;11.00;99.90
51327;DHT22;37412;52.836;6.362;2023-11-19T14:41:58;11.00;99.90
51327;DHT22;37412;52.836;6.362;2023-11-19T14:44:50;11.00;99.90
51327;DHT22;37412;52.836;6.362;2023-11-19T14:47:36;11.00;99.90
51327;DHT22;37412;52.836;6.362;2023-11-19T14:50:22;11.00;99.90
51327;DHT22;37412;52.836;6.362;2023-11-19T14:53:08;11.00;99.90
51327;DHT22;37412;52.836;6.362;2023-11-19T14:55:53;11.00;99.90
51327;DHT22;37412;52.836;6.362;2023-11-19T14:58:40;11.00;99.90
51327;DHT22;37412;52.836;6.362;2023-11-19T15:01:26;11.00;99.90
51327;DHT22;37412;52.836;6.362;2023-11-19T15:04:14;11.00;99.90
51327;DHT22;37412;52.836;6.362;2023-11-19T15:07:01;11.10;99.90
51327;DHT22;37412;52.836;6.362;2023-11-19T15:09:48;11.00;99.90
51327;DHT22;37412;52.836;6.362;2023-11-19T15:12:34;11.10;99.90
51327;DHT22;37412;52.836;6.362;2023-11-19T15:15:21;11.10;99.90
51327;DHT22;37412;52.836;6.362;2023-11-19T15:18:08;11.10;99.90
51327;DHT22;37412;52.836;6.362;2023-11-19T15:20:55;11.10;99.90
51327;DHT22;37412;52.836;6.362;2023-11-19T15:23:41;11.10;99.90
51327;DHT22;37412;52.836;6.362;2023-11-19T15:26:27;11.10;99.90
51327;DHT22;37412;52.836;6.362;2023-11-19T15:29:13;11.10;99.90
51327;DHT22;37412;52.836;6.362;2023-11-19T15:31:59;11.10;99.90
51327;DHT22;37412;52.836;6.362;2023-11-19T15:34:45;11.10;99.90
51327;DHT22;37412;52.836;6.362;2023-11-19T15:37:31;11.10;99.90
51327;DHT22;37412;52.836;6.362;2023-11-19T15:40:17;11.10;99.90
51327;DHT22;37412;52.836;6.362;2023-11-19T15:43:04;11.10;99.90
51327;DHT22;37412;52.836;6.362;2023-11-19T15:45:52;11.10;99.90
51327;DHT22;37412;52.836;6.362;2023-11-19T15:48:38;11.10;99.90
51327;DHT22;37412;52.836;6.362;2023-11-19T15:51:24;11.10;99.90
51327;DHT22;37412;52.836;6.362;2023-11-19T15:54:10;11.10;99.90
51327;DHT22;37412;52.836;6.362;2023-11-19T15:56:56;11.10;99.90
51327;DHT22;37412;52.836;6.362;2023-11-19T15:59:41;11.00;99.90
51327;DHT22;37412;52.836;6.362;2023-11-19T16:02:27;11.00;99.90
51327;DHT22;37412;52.836;6.362;2023-11-19T16:05:13;11.00;99.90
51327;DHT22;37412;52.836;6.362;2023-11-19T16:07:59;11.00;99.90
51327;DHT22;37412;52.836;6.362;2023-11-19T16:10:46;10.90;99.90
51327;DHT22;37412;52.836;6.362;2023-11-19T16:13:32;10.90;99.90
51327;DHT22;37412;52.836;6.362;2023-11-19T16:16:18;10.90;99.90
51327;DHT22;37412;52.836;6.362;2023-11-19T16:19:05;10.90;99.90
51327;DHT22;37412;52.836;6.362;2023-11-19T16:21:51;10.90;99.90
51327;DHT22;37412;52.836;6.362;2023-11-19T16:24:37;11.00;99.90
51327;DHT22;37412;52.836;6.362;2023-11-19T16:27:23;10.80;99.90
51327;DHT22;37412;52.836;6.362;2023-11-19T16:30:11;10.80;99.90
51327;DHT22;37412;52.836;6.362;2023-11-19T16:33:00;10.80;99.90
51327;DHT22;37412;52.836;6.362;2023-11-19T16:35:46;10.80;99.90
51327;DHT22;37412;52.836;6.362;2023-11-19T16:38:32;10.70;99.90
51327;DHT22;37412;52.836;6.362;2023-11-19T16:41:19;10.70;99.90
51327;DHT22;37412;52.836;6.362;2023-11-19T16:44:08;10.70;99.90
51327;DHT22;37412;52.836;6.362;2023-11-19T16:46:55;10.70;99.90
51327;DHT22;37412;52.836;6.362;2023-11-19T16:49:41;10.70;99.90
51327;DHT22;37412;52.836;6.362;2023-11-19T16:52:27;10.70;99.90
51327;DHT22;37412;52.836;6.362;2023-11-19T16:55:14;10.70;99.90
51327;DHT22;37412;52.836;6.362;2023-11-19T16:58:00;10.70;99.90
51327;DHT22;37412;52.836;6.362;2023-11-19T17:00:46;10.70;99.90
51327;DHT22;37412;52.836;6.362;2023-11-19T17:03:32;10.70;99.90
51327;DHT22;37412;52.836;6.362;2023-11-19T17:06:19;10.70;99.90
51327;DHT22;37412;52.836;6.362;2023-11-19T17:09:05;10.70;99.90
51327;DHT22;37412;52.836;6.362;2023-11-19T17:11:51;10.70;99.90
51327;DHT22;37412;52.836;6.362;2023-11-19T17:14:37;10.60;99.90
51327;DHT22;37412;52.836;6.362;2023-11-19T17:17:23;10.70;99.90
51327;DHT22;37412;52.836;6.362;2023-11-19T17:20:10;10.70;99.90
51327;DHT22;37412;52.836;6.362;2023-11-19T17:22:58;10.60;99.90
51327;DHT22;37412;52.836;6.362;2023-11-19T17:25:44;10.70;99.90
51327;DHT22;37412;52.836;6.362;2023-11-19T17:28:30;10.60;99.90
51327;DHT22;37412;52.836;6.362;2023-11-19T17:31:16;10.70;99.90
51327;DHT22;37412;52.836;6.362;2023-11-19T17:34:03;10.70;99.90
51327;DHT22;37412;52.836;6.362;2023-11-19T17:36:50;10.60;99.90
51327;DHT22;37412;52.836;6.362;2023-11-19T17:39:36;10.70;99.90
51327;DHT22;37412;52.836;6.362;2023-11-19T17:42:22;10.70;99.90
51327;DHT22;37412;52.836;6.362;2023-11-19T17:45:09;10.70;99.90
51327;DHT22;37412;52.836;6.362;2023-11-19T17:47:55;10.70;99.90
51327;DHT22;37412;52.836;6.362;2023-11-19T17:50:41;10.70;99.90